sensor_id;sensor_type;location;lat;lon;timestamp;P1;durP1;ratioP1;P2;durP2;ratioP2
61572;SDS011;47465;43.094;12.434;2023-10-08T00:03:29;11.20;;;5.13;;
61572;SDS011;47465;43.094;12.434;2023-10-08T00:05:55;10.18;;;5.45;;
61572;SDS011;47465;43.094;12.434;2023-10-08T00:08:21;12.48;;;5.80;;
61572;SDS011;47465;43.094;12.434;2023-10-08T00:10:48;11.55;;;5.35;;
61572;SDS011;47465;43.094;12.434;2023-10-08T00:13:14;9.30;;;5.07;;
61572;SDS011;47465;43.094;12.434;2023-10-08T00:15:42;9.70;;;4.80;;
61572;SDS011;47465;43.094;12.434;2023-10-08T00:18:42;9.52;;;5.30;;
61572;SDS011;47465;43.094;12.434;2023-10-08T00:21:17;13.10;;;5.88;;
61572;SDS011;47465;43.094;12.434;2023-10-08T00:23:45;9.63;;;5.50;;
61572;SDS011;47465;43.094;12.434;2023-10-08T00:26:17;12.50;;;5.20;;
61572;SDS011;47465;43.094;12.434;2023-10-08T00:28:46;11.88;;;5.50;;
61572;SDS011;47465;43.094;12.434;2023-10-08T00:31:13;10.57;;;5.50;;
61572;SDS011;47465;43.094;12.434;2023-10-08T00:36:09;10.63;;;5.30;;
61572;SDS011;47465;43.094;12.434;2023-10-08T00:38:44;9.10;;;4.88;;
61572;SDS011;47465;43.094;12.434;2023-10-08T00:41:12;10.27;;;5.65;;
61572;SDS011;47465;43.094;12.434;2023-10-08T00:43:39;12.00;;;5.75;;
61572;SDS011;47465;43.094;12.434;2023-10-08T00:46:06;14.13;;;5.63;;
61572;SDS011;47465;43.094;12.434;2023-10-08T00:49:06;11.57;;;5.45;;
61572;SDS011;47465;43.094;12.434;2023-10-08T00:52:05;13.18;;;6.95;;
61572;SDS011;47465;43.094;12.434;2023-10-08T00:54:47;10.27;;;5.50;;
61572;SDS011;47465;43.094;12.434;2023-10-08T00:57:36;12.02;;;5.70;;
61572;SDS011;47465;43.094;12.434;2023-10-08T01:00:03;11.40;;;5.55;;
61572;SDS011;47465;43.094;12.434;2023-10-08T01:02:32;11.60;;;6.03;;
61572;SDS011;47465;43.094;12.434;2023-10-08T01:05:31;12.95;;;5.80;;
61572;SDS011;47465;43.094;12.434;2023-10-08T01:08:11;11.80;;;5.38;;
61572;SDS011;47465;43.094;12.434;2023-10-08T01:10:43;10.18;;;5.57;;
61572;SDS011;47465;43.094;12.434;2023-10-08T01:13:09;10.10;;;5.20;;
61572;SDS011;47465;43.094;12.434;2023-10-08T01:15:41;9.00;;;4.93;;
61572;SDS011;47465;43.094;12.434;2023-10-08T01:18:10;11.85;;;6.00;;
61572;SDS011;47465;43.094;12.434;2023-10-08T01:20:52;11.40;;;6.10;;
61572;SDS011;47465;43.094;12.434;2023-10-08T01:23:19;11.52;;;5.82;;
61572;SDS011;47465;43.094;12.434;2023-10-08T01:25:46;12.38;;;5.68;;
61572;SDS011;47465;43.094;12.434;2023-10-08T01:28:18;12.05;;;5.95;;
61572;SDS011;47465;43.094;12.434;2023-10-08T01:30:54;13.32;;;6.75;;
61572;SDS011;47465;43.094;12.434;2023-10-08T01:33:22;10.70;;;6.03;;
61572;SDS011;47465;43.094;12.434;2023-10-08T01:35:53;12.70;;;5.63;;
61572;SDS011;47465;43.094;12.434;2023-10-08T01:38:21;9.30;;;5.25;;
61572;SDS011;47465;43.094;12.434;2023-10-08T01:40:49;13.77;;;6.18;;
61572;SDS011;47465;43.094;12.434;2023-10-08T01:43:16;10.93;;;5.55;;
61572;SDS011;47465;43.094;12.434;2023-10-08T01:45:43;12.68;;;5.82;;
61572;SDS011;47465;43.094;12.434;2023-10-08T01:48:14;12.13;;;6.65;;
61572;SDS011;47465;43.094;12.434;2023-10-08T01:50:45;12.95;;;6.15;;
61572;SDS011;47465;43.094;12.434;2023-10-08T01:53:12;11.57;;;6.15;;
61572;SDS011;47465;43.094;12.434;2023-10-08T01:55:42;10.55;;;6.40;;
61572;SDS011;47465;43.094;12.434;2023-10-08T01:58:14;11.23;;;5.75;;
61572;SDS011;47465;43.094;12.434;2023-10-08T02:00:42;12.10;;;6.20;;
61572;SDS011;47465;43.094;12.434;2023-10-08T02:03:10;13.05;;;6.47;;
61572;SDS011;47465;43.094;12.434;2023-10-08T02:05:38;15.15;;;6.65;;
61572;SDS011;47465;43.094;12.434;2023-10-08T02:08:07;12.13;;;6.05;;
61572;SDS011;47465;43.094;12.434;2023-10-08T02:10:34;12.32;;;6.28;;
61572;SDS011;47465;43.094;12.434;2023-10-08T02:13:02;12.20;;;6.50;;
61572;SDS011;47465;43.094;12.434;2023-10-08T02:15:28;12.93;;;6.65;;
61572;SDS011;47465;43.094;12.434;2023-10-08T02:17:54;11.73;;;6.20;;
61572;SDS011;47465;43.094;12.434;2023-10-08T02:20:20;13.13;;;6.07;;
61572;SDS011;47465;43.094;12.434;2023-10-08T02:22:47;13.82;;;6.63;;
61572;SDS011;47465;43.094;12.434;2023-10-08T02:25:14;12.13;;;6.30;;
61572;SDS011;47465;43.094;12.434;2023-10-08T02:27:40;11.43;;;6.10;;
61572;SDS011;47465;43.094;12.434;2023-10-08T02:30:08;13.82;;;6.72;;
61572;SDS011;47465;43.094;12.434;2023-10-08T02:32:37;13.23;;;6.28;;
61572;SDS011;47465;43.094;12.434;2023-10-08T02:35:08;12.98;;;5.82;;
61572;SDS011;47465;43.094;12.434;2023-10-08T02:37:36;11.40;;;5.78;;
61572;SDS011;47465;43.094;12.434;2023-10-08T02:40:06;13.32;;;6.20;;
61572;SDS011;47465;43.094;12.434;2023-10-08T02:42:41;10.57;;;5.72;;
61572;SDS011;47465;43.094;12.434;2023-10-08T02:45:09;13.88;;;6.07;;
61572;SDS011;47465;43.094;12.434;2023-10-08T02:47:39;15.00;;;7.07;;
61572;SDS011;47465;43.094;12.434;2023-10-08T02:50:07;11.05;;;6.15;;
61572;SDS011;47465;43.094;12.434;2023-10-08T02:52:34;13.02;;;6.18;;
61572;SDS011;47465;43.094;12.434;2023-10-08T02:55:00;13.65;;;6.20;;
61572;SDS011;47465;43.094;12.434;2023-10-08T02:57:26;14.35;;;6.47;;
61572;SDS011;47465;43.094;12.434;2023-10-08T02:59:54;12.93;;;6.38;;
61572;SDS011;47465;43.094;12.434;2023-10-08T03:02:22;11.05;;;5.95;;
61572;SDS011;47465;43.094;12.434;2023-10-08T03:04:48;12.25;;;6.50;;
61572;SDS011;47465;43.094;12.434;2023-10-08T03:07:16;11.68;;;6.43;;
61572;SDS011;47465;43.094;12.434;2023-10-08T03:09:57;11.60;;;6.45;;
61572;SDS011;47465;43.094;12.434;2023-10-08T03:12:31;12.70;;;6.40;;
61572;SDS011;47465;43.094;12.434;2023-10-08T03:14:57;13.00;;;6.60;;
61572;SDS011;47465;43.094;12.434;2023-10-08T03:17:38;11.68;;;6.32;;
61572;SDS011;47465;43.094;12.434;2023-10-08T03:20:13;12.60;;;5.90;;
61572;SDS011;47465;43.094;12.434;2023-10-08T03:23:21;11.85;;;6.32;;
61572;SDS011;47465;43.094;12.434;2023-10-08T03:25:52;12.95;;;6.03;;
61572;SDS011;47465;43.094;12.434;2023-10-08T03:28:26;13.52;;;7.07;;
61572;SDS011;47465;43.094;12.434;2023-10-08T03:30:53;12.93;;;6.65;;
61572;SDS011;47465;43.094;12.434;2023-10-08T03:33:30;14.85;;;6.93;;
61572;SDS011;47465;43.094;12.434;2023-10-08T03:35:59;13.38;;;6.68;;
61572;SDS011;47465;43.094;12.434;2023-10-08T03:38:31;12.95;;;7.15;;
61572;SDS011;47465;43.094;12.434;2023-10-08T03:41:09;14.23;;;6.55;;
61572;SDS011;47465;43.094;12.434;2023-10-08T03:43:41;11.95;;;6.00;;
61572;SDS011;47465;43.094;12.434;2023-10-08T03:46:49;14.85;;;6.93;;
61572;SDS011;47465;43.094;12.434;2023-10-08T03:52:02;12.93;;;6.32;;
61572;SDS011;47465;43.094;12.434;2023-10-08T03:54:32;15.43;;;6.70;;
61572;SDS011;47465;43.094;12.434;2023-10-08T03:57:01;13.43;;;6.38;;
61572;SDS011;47465;43.094;12.434;2023-10-08T03:59:29;15.25;;;6.47;;
61572;SDS011;47465;43.094;12.434;2023-10-08T04:01:56;13.50;;;6.75;;
61572;SDS011;47465;43.094;12.434;2023-10-08T04:04:25;12.90;;;6.72;;
61572;SDS011;47465;43.094;12.434;2023-10-08T04:06:56;11.13;;;5.95;;
61572;SDS011;47465;43.094;12.434;2023-10-08T04:09:43;10.68;;;6.05;;
61572;SDS011;47465;43.094;12.434;2023-10-08T04:12:10;12.52;;;6.85;;
61572;SDS011;47465;43.094;12.434;2023-10-08T04:14:36;14.25;;;6.97;;
61572;SDS011;47465;43.094;12.434;2023-10-08T04:17:02;10.82;;;6.30;;
61572;SDS011;47465;43.094;12.434;2023-10-08T04:19:29;14.57;;;6.93;;
61572;SDS011;47465;43.094;12.434;2023-10-08T04:21:55;12.40;;;6.72;;
61572;SDS011;47465;43.094;12.434;2023-10-08T04:24:22;11.25;;;6.63;;
61572;SDS011;47465;43.094;12.434;2023-10-08T04:27:01;15.43;;;7.30;;
61572;SDS011;47465;43.094;12.434;2023-10-08T04:29:30;13.50;;;6.82;;
61572;SDS011;47465;43.094;12.434;2023-10-08T04:31:58;17.15;;;6.38;;
61572;SDS011;47465;43.094;12.434;2023-10-08T04:34:33;12.57;;;6.45;;
61572;SDS011;47465;43.094;12.434;2023-10-08T04:36:59;14.48;;;7.22;;
61572;SDS011;47465;43.094;12.434;2023-10-08T04:39:37;13.30;;;6.53;;
61572;SDS011;47465;43.094;12.434;2023-10-08T04:42:07;14.63;;;6.38;;
61572;SDS011;47465;43.094;12.434;2023-10-08T04:44:36;13.65;;;6.68;;
61572;SDS011;47465;43.094;12.434;2023-10-08T04:47:04;11.82;;;6.20;;
61572;SDS011;47465;43.094;12.434;2023-10-08T04:49:30;14.20;;;6.43;;
61572;SDS011;47465;43.094;12.434;2023-10-08T04:51:58;14.25;;;6.18;;
61572;SDS011;47465;43.094;12.434;2023-10-08T04:54:25;12.07;;;6.57;;
61572;SDS011;47465;43.094;12.434;2023-10-08T04:56:55;13.02;;;6.72;;
61572;SDS011;47465;43.094;12.434;2023-10-08T04:59:24;13.10;;;6.75;;
61572;SDS011;47465;43.094;12.434;2023-10-08T05:01:57;13.15;;;6.72;;
61572;SDS011;47465;43.094;12.434;2023-10-08T05:04:57;12.73;;;6.85;;
61572;SDS011;47465;43.094;12.434;2023-10-08T05:07:42;12.98;;;7.40;;
61572;SDS011;47465;43.094;12.434;2023-10-08T05:10:28;14.13;;;7.78;;
61572;SDS011;47465;43.094;12.434;2023-10-08T05:13:12;14.43;;;6.68;;
61572;SDS011;47465;43.094;12.434;2023-10-08T05:15:41;14.27;;;6.45;;
61572;SDS011;47465;43.094;12.434;2023-10-08T05:18:27;12.40;;;5.88;;
61572;SDS011;47465;43.094;12.434;2023-10-08T05:21:12;13.90;;;6.72;;
61572;SDS011;47465;43.094;12.434;2023-10-08T05:23:50;14.10;;;6.88;;
61572;SDS011;47465;43.094;12.434;2023-10-08T05:26:34;13.00;;;6.57;;
61572;SDS011;47465;43.094;12.434;2023-10-08T05:29:09;11.30;;;6.47;;
61572;SDS011;47465;43.094;12.434;2023-10-08T05:32:08;13.25;;;7.15;;
61572;SDS011;47465;43.094;12.434;2023-10-08T05:35:08;14.80;;;7.55;;
61572;SDS011;47465;43.094;12.434;2023-10-08T05:38:06;12.75;;;7.30;;
61572;SDS011;47465;43.094;12.434;2023-10-08T05:41:05;15.18;;;6.80;;
61572;SDS011;47465;43.094;12.434;2023-10-08T05:43:42;13.82;;;7.47;;
61572;SDS011;47465;43.094;12.434;2023-10-08T05:46:26;12.75;;;7.35;;
61572;SDS011;47465;43.094;12.434;2023-10-08T05:49:11;13.50;;;6.88;;
61572;SDS011;47465;43.094;12.434;2023-10-08T05:51:56;14.30;;;9.07;;
61572;SDS011;47465;43.094;12.434;2023-10-08T05:54:39;13.52;;;8.27;;
61572;SDS011;47465;43.094;12.434;2023-10-08T05:57:22;14.23;;;7.28;;
61572;SDS011;47465;43.094;12.434;2023-10-08T06:00:04;11.98;;;6.05;;
61572;SDS011;47465;43.094;12.434;2023-10-08T06:02:48;16.58;;;6.90;;
61572;SDS011;47465;43.094;12.434;2023-10-08T06:05:32;15.60;;;7.82;;
61572;SDS011;47465;43.094;12.434;2023-10-08T06:08:08;14.93;;;7.45;;
61572;SDS011;47465;43.094;12.434;2023-10-08T06:10:39;16.77;;;7.65;;
61572;SDS011;47465;43.094;12.434;2023-10-08T06:13:24;14.05;;;7.40;;
61572;SDS011;47465;43.094;12.434;2023-10-08T06:16:23;16.33;;;7.57;;
61572;SDS011;47465;43.094;12.434;2023-10-08T06:19:06;14.23;;;7.88;;
61572;SDS011;47465;43.094;12.434;2023-10-08T06:21:33;13.52;;;7.28;;
61572;SDS011;47465;43.094;12.434;2023-10-08T06:23:59;13.65;;;7.82;;
61572;SDS011;47465;43.094;12.434;2023-10-08T06:26:25;16.27;;;7.10;;
61572;SDS011;47465;43.094;12.434;2023-10-08T06:28:51;14.80;;;7.60;;
61572;SDS011;47465;43.094;12.434;2023-10-08T06:31:24;14.20;;;8.13;;
61572;SDS011;47465;43.094;12.434;2023-10-08T06:33:51;15.13;;;7.57;;
61572;SDS011;47465;43.094;12.434;2023-10-08T06:36:18;14.68;;;7.47;;
61572;SDS011;47465;43.094;12.434;2023-10-08T06:38:49;14.73;;;7.60;;
61572;SDS011;47465;43.094;12.434;2023-10-08T06:41:15;14.70;;;7.22;;
61572;SDS011;47465;43.094;12.434;2023-10-08T06:43:45;18.42;;;8.07;;
61572;SDS011;47465;43.094;12.434;2023-10-08T06:46:15;13.90;;;7.22;;
61572;SDS011;47465;43.094;12.434;2023-10-08T06:48:45;17.55;;;7.68;;
61572;SDS011;47465;43.094;12.434;2023-10-08T06:51:14;16.90;;;8.32;;
61572;SDS011;47465;43.094;12.434;2023-10-08T06:53:43;16.65;;;8.25;;
61572;SDS011;47465;43.094;12.434;2023-10-08T06:56:10;14.63;;;7.03;;
61572;SDS011;47465;43.094;12.434;2023-10-08T06:58:37;14.68;;;7.28;;
61572;SDS011;47465;43.094;12.434;2023-10-08T07:01:03;13.98;;;8.45;;
61572;SDS011;47465;43.094;12.434;2023-10-08T07:03:30;12.55;;;7.15;;
61572;SDS011;47465;43.094;12.434;2023-10-08T07:05:58;14.52;;;7.63;;
61572;SDS011;47465;43.094;12.434;2023-10-08T07:08:28;11.90;;;7.00;;
61572;SDS011;47465;43.094;12.434;2023-10-08T07:10:57;15.05;;;7.10;;
61572;SDS011;47465;43.094;12.434;2023-10-08T07:13:26;15.73;;;7.70;;
61572;SDS011;47465;43.094;12.434;2023-10-08T07:15:54;13.27;;;7.18;;
61572;SDS011;47465;43.094;12.434;2023-10-08T07:18:21;15.95;;;7.55;;
61572;SDS011;47465;43.094;12.434;2023-10-08T07:23:20;14.30;;;7.38;;
61572;SDS011;47465;43.094;12.434;2023-10-08T07:26:21;12.52;;;7.10;;
61572;SDS011;47465;43.094;12.434;2023-10-08T07:28:49;11.45;;;7.65;;
61572;SDS011;47465;43.094;12.434;2023-10-08T07:31:17;11.48;;;7.00;;
61572;SDS011;47465;43.094;12.434;2023-10-08T07:33:47;13.73;;;7.68;;
61572;SDS011;47465;43.094;12.434;2023-10-08T07:36:21;13.70;;;7.22;;
61572;SDS011;47465;43.094;12.434;2023-10-08T07:38:47;15.32;;;7.28;;
61572;SDS011;47465;43.094;12.434;2023-10-08T07:41:13;14.27;;;7.43;;
61572;SDS011;47465;43.094;12.434;2023-10-08T07:43:41;15.52;;;7.75;;
61572;SDS011;47465;43.094;12.434;2023-10-08T07:46:07;15.70;;;7.22;;
61572;SDS011;47465;43.094;12.434;2023-10-08T07:48:34;12.15;;;6.85;;
61572;SDS011;47465;43.094;12.434;2023-10-08T07:51:00;14.48;;;7.00;;
61572;SDS011;47465;43.094;12.434;2023-10-08T07:53:27;10.98;;;6.50;;
61572;SDS011;47465;43.094;12.434;2023-10-08T07:56:03;13.20;;;7.10;;
61572;SDS011;47465;43.094;12.434;2023-10-08T07:58:32;12.77;;;6.78;;
61572;SDS011;47465;43.094;12.434;2023-10-08T08:01:02;11.73;;;6.78;;
61572;SDS011;47465;43.094;12.434;2023-10-08T08:03:28;16.85;;;7.05;;
61572;SDS011;47465;43.094;12.434;2023-10-08T08:05:54;13.57;;;6.65;;
61572;SDS011;47465;43.094;12.434;2023-10-08T08:08:20;14.73;;;7.32;;
61572;SDS011;47465;43.094;12.434;2023-10-08T08:10:48;11.35;;;6.20;;
61572;SDS011;47465;43.094;12.434;2023-10-08T08:13:14;13.73;;;7.50;;
61572;SDS011;47465;43.094;12.434;2023-10-08T08:15:45;13.70;;;7.07;;
61572;SDS011;47465;43.094;12.434;2023-10-08T08:18:17;12.57;;;6.57;;
61572;SDS011;47465;43.094;12.434;2023-10-08T08:20:47;13.10;;;7.43;;
61572;SDS011;47465;43.094;12.434;2023-10-08T08:23:14;13.88;;;7.68;;
61572;SDS011;47465;43.094;12.434;2023-10-08T08:25:41;16.73;;;7.88;;
61572;SDS011;47465;43.094;12.434;2023-10-08T08:28:12;14.63;;;8.15;;
61572;SDS011;47465;43.094;12.434;2023-10-08T08:30:46;14.25;;;7.22;;
61572;SDS011;47465;43.094;12.434;2023-10-08T08:33:13;13.75;;;7.28;;
61572;SDS011;47465;43.094;12.434;2023-10-08T08:35:51;15.68;;;7.78;;
61572;SDS011;47465;43.094;12.434;2023-10-08T08:38:22;13.85;;;7.93;;
61572;SDS011;47465;43.094;12.434;2023-10-08T08:40:49;15.65;;;7.70;;
61572;SDS011;47465;43.094;12.434;2023-10-08T08:43:15;15.70;;;7.50;;
61572;SDS011;47465;43.094;12.434;2023-10-08T08:45:42;16.75;;;7.68;;
61572;SDS011;47465;43.094;12.434;2023-10-08T08:48:08;14.40;;;7.30;;
61572;SDS011;47465;43.094;12.434;2023-10-08T08:50:35;14.25;;;7.43;;
61572;SDS011;47465;43.094;12.434;2023-10-08T08:53:05;14.25;;;6.82;;
61572;SDS011;47465;43.094;12.434;2023-10-08T08:55:31;12.38;;;7.53;;
61572;SDS011;47465;43.094;12.434;2023-10-08T08:57:58;11.30;;;6.70;;
61572;SDS011;47465;43.094;12.434;2023-10-08T09:00:25;11.95;;;6.53;;
61572;SDS011;47465;43.094;12.434;2023-10-08T09:02:55;13.57;;;6.68;;
61572;SDS011;47465;43.094;12.434;2023-10-08T09:05:21;12.93;;;6.28;;
61572;SDS011;47465;43.094;12.434;2023-10-08T09:07:54;11.40;;;7.22;;
61572;SDS011;47465;43.094;12.434;2023-10-08T09:10:44;12.95;;;6.93;;
61572;SDS011;47465;43.094;12.434;2023-10-08T09:13:18;14.75;;;6.97;;
61572;SDS011;47465;43.094;12.434;2023-10-08T09:15:46;12.40;;;6.75;;
61572;SDS011;47465;43.094;12.434;2023-10-08T09:18:12;13.50;;;7.18;;
61572;SDS011;47465;43.094;12.434;2023-10-08T09:20:39;10.73;;;6.35;;
61572;SDS011;47465;43.094;12.434;2023-10-08T09:23:09;12.95;;;7.22;;
61572;SDS011;47465;43.094;12.434;2023-10-08T09:25:38;13.13;;;7.47;;
61572;SDS011;47465;43.094;12.434;2023-10-08T09:28:07;13.23;;;7.18;;
61572;SDS011;47465;43.094;12.434;2023-10-08T09:30:33;11.05;;;6.90;;
61572;SDS011;47465;43.094;12.434;2023-10-08T09:33:04;11.77;;;7.22;;
61572;SDS011;47465;43.094;12.434;2023-10-08T09:35:31;12.60;;;6.97;;
61572;SDS011;47465;43.094;12.434;2023-10-08T09:37:58;12.93;;;7.93;;
61572;SDS011;47465;43.094;12.434;2023-10-08T09:40:25;12.10;;;6.97;;
61572;SDS011;47465;43.094;12.434;2023-10-08T09:42:51;11.27;;;6.90;;
61572;SDS011;47465;43.094;12.434;2023-10-08T09:45:20;12.02;;;7.22;;
61572;SDS011;47465;43.094;12.434;2023-10-08T09:47:49;10.23;;;6.75;;
61572;SDS011;47465;43.094;12.434;2023-10-08T09:50:18;13.82;;;6.30;;
61572;SDS011;47465;43.094;12.434;2023-10-08T09:52:56;12.55;;;7.30;;
61572;SDS011;47465;43.094;12.434;2023-10-08T09:55:29;13.70;;;7.40;;
61572;SDS011;47465;43.094;12.434;2023-10-08T09:57:55;11.70;;;6.88;;
61572;SDS011;47465;43.094;12.434;2023-10-08T10:00:23;13.55;;;7.75;;
61572;SDS011;47465;43.094;12.434;2023-10-08T10:02:58;12.05;;;6.78;;
61572;SDS011;47465;43.094;12.434;2023-10-08T10:05:32;14.55;;;7.63;;
61572;SDS011;47465;43.094;12.434;2023-10-08T10:08:02;13.60;;;7.25;;
61572;SDS011;47465;43.094;12.434;2023-10-08T10:10:31;13.23;;;7.22;;
61572;SDS011;47465;43.094;12.434;2023-10-08T10:12:59;11.85;;;7.82;;
61572;SDS011;47465;43.094;12.434;2023-10-08T10:15:27;11.55;;;6.68;;
61572;SDS011;47465;43.094;12.434;2023-10-08T10:17:58;23.67;;;8.75;;
61572;SDS011;47465;43.094;12.434;2023-10-08T10:20:33;15.75;;;8.00;;
61572;SDS011;47465;43.094;12.434;2023-10-08T10:23:14;14.20;;;7.65;;
61572;SDS011;47465;43.094;12.434;2023-10-08T10:26:01;13.88;;;7.68;;
61572;SDS011;47465;43.094;12.434;2023-10-08T10:28:28;12.23;;;7.03;;
61572;SDS011;47465;43.094;12.434;2023-10-08T10:30:59;16.23;;;6.88;;
61572;SDS011;47465;43.094;12.434;2023-10-08T10:33:32;10.95;;;6.85;;
61572;SDS011;47465;43.094;12.434;2023-10-08T10:36:00;9.70;;;6.47;;
61572;SDS011;47465;43.094;12.434;2023-10-08T10:38:27;12.52;;;6.78;;
61572;SDS011;47465;43.094;12.434;2023-10-08T10:40:55;12.70;;;7.10;;
61572;SDS011;47465;43.094;12.434;2023-10-08T10:43:23;16.30;;;7.93;;
61572;SDS011;47465;43.094;12.434;2023-10-08T10:45:59;12.10;;;7.53;;
61572;SDS011;47465;43.094;12.434;2023-10-08T10:48:45;16.23;;;8.10;;
61572;SDS011;47465;43.094;12.434;2023-10-08T10:51:30;13.27;;;7.75;;
61572;SDS011;47465;43.094;12.434;2023-10-08T10:53:56;14.00;;;7.75;;
61572;SDS011;47465;43.094;12.434;2023-10-08T10:56:32;14.88;;;7.80;;
61572;SDS011;47465;43.094;12.434;2023-10-08T10:59:10;14.38;;;8.55;;
61572;SDS011;47465;43.094;12.434;2023-10-08T11:02:10;14.57;;;8.63;;
61572;SDS011;47465;43.094;12.434;2023-10-08T11:05:19;15.32;;;8.65;;
61572;SDS011;47465;43.094;12.434;2023-10-08T11:07:45;15.80;;;8.85;;
61572;SDS011;47465;43.094;12.434;2023-10-08T11:10:15;16.52;;;8.13;;
61572;SDS011;47465;43.094;12.434;2023-10-08T11:12:42;12.57;;;7.82;;
61572;SDS011;47465;43.094;12.434;2023-10-08T11:15:12;18.63;;;8.85;;
61572;SDS011;47465;43.094;12.434;2023-10-08T11:17:41;15.18;;;8.25;;
61572;SDS011;47465;43.094;12.434;2023-10-08T11:22:51;12.77;;;8.13;;
61572;SDS011;47465;43.094;12.434;2023-10-08T11:25:22;15.15;;;8.50;;
61572;SDS011;47465;43.094;12.434;2023-10-08T11:27:50;12.20;;;7.93;;
61572;SDS011;47465;43.094;12.434;2023-10-08T11:30:24;19.45;;;8.45;;
61572;SDS011;47465;43.094;12.434;2023-10-08T11:32:52;15.63;;;7.85;;
61572;SDS011;47465;43.094;12.434;2023-10-08T11:35:18;11.95;;;7.88;;
61572;SDS011;47465;43.094;12.434;2023-10-08T11:37:46;13.65;;;7.88;;
61572;SDS011;47465;43.094;12.434;2023-10-08T11:40:21;11.00;;;7.18;;
61572;SDS011;47465;43.094;12.434;2023-10-08T11:42:53;14.18;;;7.88;;
61572;SDS011;47465;43.094;12.434;2023-10-08T11:45:25;13.30;;;8.52;;
61572;SDS011;47465;43.094;12.434;2023-10-08T11:47:52;13.40;;;6.95;;
61572;SDS011;47465;43.094;12.434;2023-10-08T11:50:25;14.20;;;6.85;;
61572;SDS011;47465;43.094;12.434;2023-10-08T11:53:02;13.18;;;7.85;;
61572;SDS011;47465;43.094;12.434;2023-10-08T11:55:31;13.80;;;8.13;;
61572;SDS011;47465;43.094;12.434;2023-10-08T11:58:00;12.80;;;7.57;;
61572;SDS011;47465;43.094;12.434;2023-10-08T12:00:27;12.77;;;7.13;;
61572;SDS011;47465;43.094;12.434;2023-10-08T12:02:53;12.27;;;7.18;;
61572;SDS011;47465;43.094;12.434;2023-10-08T12:05:19;11.63;;;7.47;;
61572;SDS011;47465;43.094;12.434;2023-10-08T12:07:48;13.00;;;7.40;;
61572;SDS011;47465;43.094;12.434;2023-10-08T12:10:17;11.23;;;7.45;;
61572;SDS011;47465;43.094;12.434;2023-10-08T12:12:51;13.70;;;7.75;;
61572;SDS011;47465;43.094;12.434;2023-10-08T12:15:18;13.35;;;7.22;;
61572;SDS011;47465;43.094;12.434;2023-10-08T12:17:48;15.23;;;8.23;;
61572;SDS011;47465;43.094;12.434;2023-10-08T12:20:57;13.13;;;7.20;;
61572;SDS011;47465;43.094;12.434;2023-10-08T12:23:23;14.05;;;7.28;;
61572;SDS011;47465;43.094;12.434;2023-10-08T12:25:52;10.63;;;7.38;;
61572;SDS011;47465;43.094;12.434;2023-10-08T12:28:18;14.93;;;7.00;;
61572;SDS011;47465;43.094;12.434;2023-10-08T12:30:44;12.32;;;7.03;;
61572;SDS011;47465;43.094;12.434;2023-10-08T12:33:10;12.55;;;7.82;;
61572;SDS011;47465;43.094;12.434;2023-10-08T12:35:41;16.20;;;7.10;;
61572;SDS011;47465;43.094;12.434;2023-10-08T12:38:09;10.77;;;6.75;;
61572;SDS011;47465;43.094;12.434;2023-10-08T12:40:35;10.80;;;7.00;;
61572;SDS011;47465;43.094;12.434;2023-10-08T12:43:38;15.60;;;6.93;;
61572;SDS011;47465;43.094;12.434;2023-10-08T12:46:07;9.77;;;7.10;;
61572;SDS011;47465;43.094;12.434;2023-10-08T12:48:39;12.38;;;7.38;;
61572;SDS011;47465;43.094;12.434;2023-10-08T12:51:05;10.52;;;6.32;;
61572;SDS011;47465;43.094;12.434;2023-10-08T12:53:31;13.52;;;6.40;;
61572;SDS011;47465;43.094;12.434;2023-10-08T12:56:06;11.85;;;6.30;;
61572;SDS011;47465;43.094;12.434;2023-10-08T12:58:42;14.50;;;6.60;;
61572;SDS011;47465;43.094;12.434;2023-10-08T13:01:09;11.02;;;6.43;;
61572;SDS011;47465;43.094;12.434;2023-10-08T13:03:36;10.05;;;6.82;;
61572;SDS011;47465;43.094;12.434;2023-10-08T13:06:07;10.75;;;6.28;;
61572;SDS011;47465;43.094;12.434;2023-10-08T13:08:36;10.90;;;6.22;;
61572;SDS011;47465;43.094;12.434;2023-10-08T13:11:02;9.70;;;6.40;;
61572;SDS011;47465;43.094;12.434;2023-10-08T13:13:29;10.52;;;6.57;;
61572;SDS011;47465;43.094;12.434;2023-10-08T13:15:59;9.20;;;5.88;;
61572;SDS011;47465;43.094;12.434;2023-10-08T13:18:28;12.63;;;6.28;;
61572;SDS011;47465;43.094;12.434;2023-10-08T13:20:55;11.07;;;6.38;;
61572;SDS011;47465;43.094;12.434;2023-10-08T13:23:23;9.38;;;5.93;;
61572;SDS011;47465;43.094;12.434;2023-10-08T13:25:49;9.43;;;5.63;;
61572;SDS011;47465;43.094;12.434;2023-10-08T13:28:19;11.40;;;6.47;;
61572;SDS011;47465;43.094;12.434;2023-10-08T13:30:46;11.68;;;5.75;;
61572;SDS011;47465;43.094;12.434;2023-10-08T13:33:13;10.00;;;6.30;;
61572;SDS011;47465;43.094;12.434;2023-10-08T13:35:39;8.13;;;5.43;;
61572;SDS011;47465;43.094;12.434;2023-10-08T13:38:05;8.73;;;5.82;;
61572;SDS011;47465;43.094;12.434;2023-10-08T13:43:05;7.80;;;5.55;;
61572;SDS011;47465;43.094;12.434;2023-10-08T13:45:30;10.20;;;6.18;;
61572;SDS011;47465;43.094;12.434;2023-10-08T13:47:58;12.32;;;5.25;;
61572;SDS011;47465;43.094;12.434;2023-10-08T13:50:28;10.20;;;5.50;;
61572;SDS011;47465;43.094;12.434;2023-10-08T13:52:55;10.32;;;5.60;;
61572;SDS011;47465;43.094;12.434;2023-10-08T13:55:22;12.35;;;5.93;;
61572;SDS011;47465;43.094;12.434;2023-10-08T13:57:50;13.90;;;6.18;;
61572;SDS011;47465;43.094;12.434;2023-10-08T14:00:16;8.68;;;5.47;;
61572;SDS011;47465;43.094;12.434;2023-10-08T14:02:50;9.80;;;5.60;;
61572;SDS011;47465;43.094;12.434;2023-10-08T14:05:21;8.55;;;5.70;;
61572;SDS011;47465;43.094;12.434;2023-10-08T14:07:51;8.63;;;5.28;;
61572;SDS011;47465;43.094;12.434;2023-10-08T14:10:18;10.82;;;5.65;;
61572;SDS011;47465;43.094;12.434;2023-10-08T14:12:44;9.50;;;6.10;;
61572;SDS011;47465;43.094;12.434;2023-10-08T14:15:14;9.15;;;5.30;;
61572;SDS011;47465;43.094;12.434;2023-10-08T14:17:43;9.73;;;5.25;;
61572;SDS011;47465;43.094;12.434;2023-10-08T14:20:13;13.60;;;5.60;;
61572;SDS011;47465;43.094;12.434;2023-10-08T14:22:47;9.52;;;5.80;;
61572;SDS011;47465;43.094;12.434;2023-10-08T14:25:23;10.32;;;5.75;;
61572;SDS011;47465;43.094;12.434;2023-10-08T14:27:55;9.77;;;4.63;;
61572;SDS011;47465;43.094;12.434;2023-10-08T14:30:30;12.90;;;5.47;;
61572;SDS011;47465;43.094;12.434;2023-10-08T14:32:56;8.73;;;5.28;;
61572;SDS011;47465;43.094;12.434;2023-10-08T14:35:23;8.25;;;5.10;;
61572;SDS011;47465;43.094;12.434;2023-10-08T14:38:26;10.60;;;6.75;;
61572;SDS011;47465;43.094;12.434;2023-10-08T14:41:26;12.68;;;7.30;;
61572;SDS011;47465;43.094;12.434;2023-10-08T14:44:33;10.93;;;6.47;;
61572;SDS011;47465;43.094;12.434;2023-10-08T14:46:59;9.88;;;7.03;;
61572;SDS011;47465;43.094;12.434;2023-10-08T14:49:25;12.77;;;6.60;;
61572;SDS011;47465;43.094;12.434;2023-10-08T14:51:54;10.38;;;6.13;;
61572;SDS011;47465;43.094;12.434;2023-10-08T14:54:20;10.00;;;6.05;;
61572;SDS011;47465;43.094;12.434;2023-10-08T14:56:46;11.73;;;5.47;;
61572;SDS011;47465;43.094;12.434;2023-10-08T14:59:12;10.38;;;5.78;;
61572;SDS011;47465;43.094;12.434;2023-10-08T15:01:39;8.00;;;5.22;;
61572;SDS011;47465;43.094;12.434;2023-10-08T15:04:05;8.73;;;5.45;;
61572;SDS011;47465;43.094;12.434;2023-10-08T15:06:34;12.63;;;6.65;;